Time;durP1;ratioP1;P1;durP2;ratioP2;P2;SDS_P1;SDS_P2;PMS_P1;PMS_P2;Temp;Humidity;BMP_temperature;BMP_pressure;BME280_temperature;BME280_humidity;BME280_pressure;Samples;Min_cycle;Max_cycle;Signal;HPM_P1;HPM_P2
2022/03/23 00:00:10;;;;;;;25.98;16.40;;;10.10;53.70;;;;;;5027590;28;20133;-72
2022/03/23 00:02:36;;;;;;;24.38;15.55;;;10.10;53.80;;;;;;5008291;28;20166;-71
2022/03/23 00:05:02;;;;;;;24.25;15.40;;;10.00;53.90;;;;;;5028525;28;20072;-72
2022/03/23 00:07:28;;;;;;;26.63;15.45;;;10.00;53.90;;;;;;5028262;28;20166;-72
2022/03/23 00:09:54;;;;;;;24.65;15.18;;;9.90;54.10;;;;;;5028747;28;20034;-73
2022/03/23 00:12:19;;;;;;;27.33;15.75;;;9.90;54.30;;;;;;5007284;28;20084;-71
2022/03/23 00:14:45;;;;;;;25.45;15.73;;;9.90;54.50;;;;;;5027513;28;20104;-71
2022/03/23 00:17:13;;;;;;;26.55;16.38;;;9.80;54.60;;;;;;4996633;28;20022;-71
2022/03/23 00:19:39;;;;;;;23.75;15.65;;;9.80;54.70;;;;;;5004818;28;20034;-71
2022/03/23 00:22:05;;;;;;;24.85;16.70;;;9.70;55.00;;;;;;5007785;28;20083;-72
2022/03/23 00:24:31;;;;;;;26.38;15.85;;;9.70;55.20;;;;;;5025870;28;20067;-70
2022/03/23 00:26:57;;;;;;;25.85;16.77;;;9.60;55.40;;;;;;5028011;28;20384;-71
2022/03/23 00:29:23;;;;;;;27.13;16.23;;;9.60;55.70;;;;;;5011639;28;20140;-71
2022/03/23 00:31:48;;;;;;;33.42;16.90;;;9.70;56.10;;;;;;5009086;28;20037;-70
2022/03/23 00:34:14;;;;;;;25.08;16.33;;;9.60;55.90;;;;;;5023454;28;20037;-72
2022/03/23 00:36:40;;;;;;;28.08;16.75;;;9.60;56.40;;;;;;5009051;28;20026;-70
2022/03/23 00:39:06;;;;;;;27.60;17.67;;;9.60;56.70;;;;;;5011209;28;20032;-70
2022/03/23 00:41:32;;;;;;;26.38;16.13;;;9.50;56.30;;;;;;5010200;28;20021;-70
2022/03/23 00:43:57;;;;;;;24.40;16.17;;;9.50;56.30;;;;;;5027652;28;20116;-70
2022/03/23 00:46:24;;;;;;;26.23;15.68;;;9.50;56.50;;;;;;5025655;28;20405;-72
2022/03/23 00:48:51;;;;;;;27.30;17.08;;;9.40;56.60;;;;;;4992730;28;20036;-72
2022/03/23 00:51:18;;;;;;;29.48;17.48;;;9.40;56.90;;;;;;5027123;28;20079;-72
2022/03/23 00:53:44;;;;;;;25.65;16.38;;;9.40;57.10;;;;;;5006270;28;20172;-72
2022/03/23 00:56:10;;;;;;;29.98;18.27;;;9.30;57.20;;;;;;5006825;28;20072;-71
2022/03/23 00:58:36;;;;;;;28.75;17.02;;;9.40;58.30;;;;;;5027890;28;20025;-71
2022/03/23 01:01:02;;;;;;;32.42;19.05;;;9.30;58.10;;;;;;5009279;28;20034;-70
2022/03/23 01:03:29;;;;;;;32.08;18.45;;;9.30;58.00;;;;;;5007041;28;20040;-71
2022/03/23 01:05:55;;;;;;;27.98;17.65;;;9.30;58.20;;;;;;5009680;28;20413;-70
2022/03/23 01:08:21;;;;;;;29.33;19.67;;;9.30;58.20;;;;;;5024490;28;20037;-72
2022/03/23 01:10:46;;;;;;;29.77;19.27;;;9.30;58.40;;;;;;5009619;28;20486;-70
2022/03/23 01:13:12;;;;;;;30.63;18.30;;;9.20;58.40;;;;;;5027155;28;20428;-70
2022/03/23 01:15:38;;;;;;;28.35;18.55;;;9.20;58.60;;;;;;5022218;28;20387;-72
2022/03/23 01:18:04;;;;;;;31.63;18.42;;;9.10;58.60;;;;;;5024663;28;20034;-70
2022/03/23 01:20:30;;;;;;;28.85;18.50;;;9.10;59.10;;;;;;4991265;28;20025;-72
2022/03/23 01:22:57;;;;;;;29.58;19.23;;;9.00;58.90;;;;;;5019051;28;20025;-71
2022/03/23 01:25:23;;;;;;;31.13;19.45;;;9.00;59.20;;;;;;5007085;28;20063;-71
2022/03/23 01:27:49;;;;;;;31.88;19.17;;;9.00;59.30;;;;;;5010376;28;20057;-70
2022/03/23 01:30:15;;;;;;;33.45;18.92;;;9.00;59.60;;;;;;5008107;28;20029;-70
2022/03/23 01:32:42;;;;;;;30.80;18.00;;;8.90;59.70;;;;;;5006165;28;20057;-70
2022/03/23 01:35:09;;;;;;;36.33;18.63;;;8.90;60.00;;;;;;5010826;28;20033;-71
2022/03/23 01:37:35;;;;;;;32.08;18.48;;;8.90;60.10;;;;;;5023603;28;20035;-71
2022/03/23 01:40:03;;;;;;;31.98;19.38;;;8.90;60.00;;;;;;5025062;28;20064;-73
2022/03/23 01:42:29;;;;;;;29.48;18.42;;;8.90;60.20;;;;;;5009114;28;20053;-73
2022/03/23 01:44:55;;;;;;;28.33;18.38;;;8.80;60.20;;;;;;5003101;28;20452;-70
2022/03/23 01:47:21;;;;;;;32.20;20.30;;;8.80;60.20;;;;;;5024058;28;20061;-71
2022/03/23 01:49:51;;;;;;;30.00;18.50;;;8.80;60.60;;;;;;5003789;28;20061;-70
2022/03/23 01:52:19;;;;;;;31.13;19.75;;;8.80;61.10;;;;;;5007012;28;20037;-70
2022/03/23 01:54:45;;;;;;;30.50;18.23;;;8.80;60.90;;;;;;5003256;28;20523;-70
2022/03/23 01:57:14;;;;;;;28.33;18.15;;;8.80;61.20;;;;;;5024994;28;20521;-72
2022/03/23 01:59:40;;;;;;;31.58;20.45;;;8.70;61.10;;;;;;5025897;28;20021;-70
2022/03/23 02:02:08;;;;;;;34.97;21.13;;;8.70;61.10;;;;;;5019305;28;20479;-72
2022/03/23 02:04:35;;;;;;;35.38;21.73;;;8.70;61.60;;;;;;5009093;28;20108;-70
2022/03/23 02:07:01;;;;;;;37.10;19.63;;;8.70;61.40;;;;;;5026418;28;20036;-70
2022/03/23 02:09:27;;;;;;;32.97;19.38;;;8.70;61.70;;;;;;5006483;28;20053;-70
2022/03/23 02:11:54;;;;;;;31.52;20.60;;;8.70;61.70;;;;;;5025411;28;20029;-70
2022/03/23 02:14:20;;;;;;;29.17;18.80;;;8.60;61.60;;;;;;5005583;28;20029;-70
2022/03/23 02:16:47;;;;;;;29.13;18.85;;;8.70;61.50;;;;;;5023372;28;20558;-71
2022/03/23 02:19:13;;;;;;;32.03;19.88;;;8.60;61.30;;;;;;5021014;28;20053;-71
2022/03/23 02:21:44;;;;;;;32.92;19.35;;;8.60;61.50;;;;;;5022023;28;20062;-71
2022/03/23 02:24:10;;;;;;;32.45;20.35;;;8.60;61.80;;;;;;5008114;28;20100;-70
2022/03/23 02:26:39;;;;;;;32.67;20.00;;;8.50;61.80;;;;;;5021974;28;20477;-70
2022/03/23 02:29:05;;;;;;;32.70;18.85;;;8.50;61.90;;;;;;5024945;28;20033;-72
2022/03/23 02:31:31;;;;;;;31.08;19.63;;;8.50;62.30;;;;;;5006985;28;20040;-73
2022/03/23 02:33:58;;;;;;;31.70;20.02;;;8.50;62.30;;;;;;5005364;28;20034;-71
2022/03/23 02:36:24;;;;;;;33.65;20.58;;;8.40;62.60;;;;;;5026409;28;20113;-73
2022/03/23 02:38:50;;;;;;;33.42;19.70;;;8.40;62.40;;;;;;5015442;28;20108;-70
2022/03/23 02:41:15;;;;;;;33.05;18.95;;;8.40;62.10;;;;;;5023927;28;20034;-71
2022/03/23 02:43:41;;;;;;;35.50;21.08;;;8.40;62.50;;;;;;5006296;28;20053;-70
2022/03/23 02:46:19;;;;;;;31.00;19.05;;;8.40;62.70;;;;;;5009644;28;20044;-72
2022/03/23 02:48:46;;;;;;;32.72;19.65;;;8.40;62.90;;;;;;5018011;28;20022;-70
2022/03/23 02:51:13;;;;;;;29.77;19.70;;;8.40;62.70;;;;;;5023204;28;20053;-70
2022/03/23 03:02:36;;;;;;;32.45;18.92;;;8.30;63.30;;;;;;5023814;28;20100;-70
2022/03/23 03:05:03;;;;;;;29.50;19.55;;;8.30;63.20;;;;;;5003082;28;20549;-70
2022/03/23 03:08:44;;;;;;;35.50;21.67;;;8.30;63.40;;;;;;5019636;28;20339;-72
2022/03/23 03:10:15;;;;;;;31.63;19.17;;;8.30;63.30;;;;;;5020975;28;20095;-70
2022/03/23 03:12:42;;;;;;;34.28;20.30;;;8.30;63.50;;;;;;4985262;28;20030;-70
2022/03/23 03:15:10;;;;;;;34.90;20.75;;;8.20;63.40;;;;;;5019864;28;20077;-72
2022/03/23 03:17:36;;;;;;;34.00;20.00;;;8.20;63.40;;;;;;5007229;28;20761;-70
2022/03/23 03:20:04;;;;;;;32.28;20.20;;;8.20;63.60;;;;;;5000801;28;20034;-70
2022/03/23 03:22:34;;;;;;;33.80;20.75;;;8.10;63.90;;;;;;5015814;28;20508;-70
2022/03/23 03:25:01;;;;;;;38.75;22.38;;;8.10;63.90;;;;;;5018871;28;20326;-70
2022/03/23 03:27:30;;;;;;;31.15;19.35;;;8.00;64.00;;;;;;5001987;28;20152;-70
2022/03/23 03:29:56;;;;;;;31.67;21.05;;;8.00;64.10;;;;;;5003572;28;20072;-70
2022/03/23 03:32:22;;;;;;;29.60;19.92;;;8.00;64.30;;;;;;5006961;28;20068;-70
2022/03/23 03:34:48;;;;;;;30.67;19.77;;;8.00;64.20;;;;;;5025160;28;20029;-70
2022/03/23 03:37:13;;;;;;;38.97;20.42;;;8.00;64.40;;;;;;5023466;28;20037;-70
2022/03/23 03:39:39;;;;;;;31.05;20.60;;;7.90;64.40;;;;;;5009584;28;20026;-70
2022/03/23 03:42:07;;;;;;;33.45;20.65;;;7.90;64.50;;;;;;5003019;28;20029;-71
2022/03/23 03:44:32;;;;;;;34.47;20.25;;;7.90;64.70;;;;;;4987995;28;20110;-70
2022/03/23 03:46:58;;;;;;;33.55;21.02;;;7.80;64.70;;;;;;5023221;28;20148;-72
2022/03/23 03:49:24;;;;;;;33.05;20.85;;;7.80;65.00;;;;;;5019025;28;20026;-70
2022/03/23 03:51:49;;;;;;;33.40;21.23;;;7.80;65.00;;;;;;5009088;28;20022;-70
2022/03/23 03:54:15;;;;;;;36.33;21.15;;;7.80;65.70;;;;;;5007560;28;20465;-70
2022/03/23 03:56:40;;;;;;;34.22;22.10;;;7.80;65.70;;;;;;5019970;28;20101;-72
2022/03/23 03:59:06;;;;;;;33.03;21.67;;;7.70;65.60;;;;;;5027941;28;20033;-70
2022/03/23 04:01:32;;;;;;;36.38;22.40;;;7.70;66.10;;;;;;5010545;28;20469;-70
2022/03/23 04:03:57;;;;;;;35.63;22.20;;;7.70;66.00;;;;;;5021144;28;20133;-70
2022/03/23 04:06:23;;;;;;;36.40;22.73;;;7.60;66.40;;;;;;5027604;28;20048;-70
2022/03/23 04:08:49;;;;;;;35.47;21.75;;;7.70;66.70;;;;;;5007086;28;20039;-70
2022/03/23 04:11:14;;;;;;;35.05;22.13;;;7.70;66.60;;;;;;5009969;28;20030;-70
2022/03/23 04:13:40;;;;;;;36.03;21.88;;;7.70;66.30;;;;;;5024113;28;20108;-70
2022/03/23 04:16:06;;;;;;;35.97;23.30;;;7.70;66.90;;;;;;5024850;28;20021;-70
2022/03/23 04:18:31;;;;;;;37.28;22.40;;;7.70;66.70;;;;;;5006666;28;20018;-70
2022/03/23 04:20:57;;;;;;;37.58;22.50;;;7.60;66.50;;;;;;5021970;28;20034;-70
2022/03/23 04:23:23;;;;;;;36.03;21.73;;;7.60;66.40;;;;;;5008041;28;20396;-70
2022/03/23 04:25:49;;;;;;;39.40;23.27;;;7.60;66.50;;;;;;5025328;28;20120;-70
2022/03/23 04:28:15;;;;;;;33.40;21.08;;;7.50;66.90;;;;;;5003171;28;20041;-70
2022/03/23 04:30:41;;;;;;;36.75;22.35;;;7.50;66.60;;;;;;5007391;28;20037;-70
2022/03/23 04:33:07;;;;;;;34.20;21.98;;;7.50;67.20;;;;;;5004509;28;20029;-70
2022/03/23 04:35:33;;;;;;;36.20;21.92;;;7.50;67.20;;;;;;5006774;28;20037;-70
2022/03/23 04:38:00;;;;;;;39.20;23.10;;;7.50;67.10;;;;;;5001820;28;20033;-70
2022/03/23 04:40:25;;;;;;;34.33;21.65;;;7.50;67.50;;;;;;5005162;28;20025;-72
2022/03/23 04:42:51;;;;;;;39.15;22.98;;;7.40;67.50;;;;;;5025630;28;20033;-71
2022/03/23 04:45:17;;;;;;;36.47;22.42;;;7.50;67.90;;;;;;5021022;28;20029;-71
2022/03/23 04:47:44;;;;;;;32.58;21.75;;;7.40;67.70;;;;;;4999369;28;20112;-71
2022/03/23 04:50:11;;;;;;;37.55;22.45;;;7.40;68.30;;;;;;5001293;28;20123;-71
2022/03/23 04:52:39;;;;;;;37.72;21.75;;;7.40;68.10;;;;;;5004158;28;20511;-70
2022/03/23 04:55:06;;;;;;;36.50;22.13;;;7.40;68.00;;;;;;5008286;28;20607;-71
2022/03/23 04:57:32;;;;;;;38.58;22.58;;;7.40;68.30;;;;;;5022318;28;20084;-71
2022/03/23 04:59:58;;;;;;;35.10;21.85;;;7.30;68.30;;;;;;5005352;28;20029;-70
2022/03/23 05:02:26;;;;;;;36.38;22.65;;;7.30;68.40;;;;;;5024756;28;20435;-70
2022/03/23 05:04:52;;;;;;;37.67;23.05;;;7.30;68.60;;;;;;5023561;28;20110;-71
2022/03/23 05:07:17;;;;;;;33.83;21.83;;;7.30;68.30;;;;;;5007257;28;20048;-71
2022/03/23 05:09:43;;;;;;;32.25;20.45;;;7.30;68.70;;;;;;5004163;28;20853;-72
2022/03/23 05:12:09;;;;;;;38.30;23.27;;;7.20;69.00;;;;;;5006143;28;20044;-71
2022/03/23 05:14:36;;;;;;;35.85;21.23;;;7.20;69.00;;;;;;5021444;28;20075;-71
2022/03/23 05:17:03;;;;;;;37.20;21.92;;;7.20;68.90;;;;;;5023709;28;20095;-72
2022/03/23 05:19:28;;;;;;;35.33;21.45;;;7.20;69.20;;;;;;5020059;28;20027;-71
2022/03/23 05:21:54;;;;;;;33.67;21.60;;;7.20;69.40;;;;;;4995148;28;20031;-70
2022/03/23 05:24:21;;;;;;;37.10;23.50;;;7.10;69.40;;;;;;5025320;28;20053;-70
2022/03/23 05:26:46;;;;;;;37.40;21.70;;;7.10;69.70;;;;;;4998764;28;20029;-74
2022/03/23 05:29:12;;;;;;;37.65;22.70;;;7.10;69.80;;;;;;5022710;28;20033;-71
2022/03/23 05:31:38;;;;;;;31.83;21.33;;;7.10;70.00;;;;;;5003336;28;20112;-72
2022/03/23 05:34:04;;;;;;;38.60;23.40;;;7.10;70.10;;;;;;4994218;28;20025;-71
2022/03/23 05:36:30;;;;;;;38.78;23.67;;;7.20;71.90;;;;;;5021197;28;20504;-71
2022/03/23 05:38:57;;;;;;;36.78;22.73;;;7.40;71.80;;;;;;5021588;28;20030;-71
2022/03/23 05:41:24;;;;;;;36.78;22.83;;;7.50;70.30;;;;;;5008339;28;20029;-72
2022/03/23 05:43:49;;;;;;;37.20;22.15;;;7.50;70.30;;;;;;5023109;28;20033;-71
2022/03/23 05:46:15;;;;;;;37.30;23.08;;;7.60;70.30;;;;;;5020269;28;20180;-71
2022/03/23 05:48:41;;;;;;;40.53;23.52;;;7.50;70.40;;;;;;5009070;28;20032;-71
2022/03/23 05:51:07;;;;;;;40.83;23.30;;;7.50;70.60;;;;;;5026701;28;20044;-73
2022/03/23 05:53:33;;;;;;;40.17;24.10;;;7.50;70.70;;;;;;5022379;28;20033;-71
2022/03/23 05:55:59;;;;;;;36.83;22.73;;;7.50;70.50;;;;;;5008287;28;20116;-70
2022/03/23 05:58:25;;;;;;;36.42;22.67;;;7.50;70.30;;;;;;5027502;28;20029;-71
2022/03/23 06:00:51;;;;;;;34.15;22.50;;;7.50;70.60;;;;;;5024707;28;20551;-74
2022/03/23 06:03:17;;;;;;;42.47;25.05;;;7.50;70.70;;;;;;5022372;28;20018;-71
2022/03/23 06:05:43;;;;;;;37.33;22.58;;;7.50;71.10;;;;;;5025228;28;20044;-71
2022/03/23 06:08:08;;;;;;;36.65;23.17;;;7.40;70.90;;;;;;5026813;28;20033;-70
2022/03/23 06:10:34;;;;;;;38.25;23.67;;;7.50;71.10;;;;;;5026375;28;20099;-70
2022/03/23 06:13:00;;;;;;;39.63;23.25;;;7.50;71.10;;;;;;5008776;28;20033;-72
2022/03/23 06:15:26;;;;;;;38.78;23.33;;;7.50;71.60;;;;;;5024450;28;22354;-71
2022/03/23 06:17:54;;;;;;;38.22;23.02;;;7.60;71.50;;;;;;4986084;28;20120;-71
2022/03/23 06:20:20;;;;;;;42.63;23.73;;;7.60;71.70;;;;;;5015568;28;20064;-71
2022/03/23 06:22:45;;;;;;;38.92;23.23;;;7.60;71.40;;;;;;5023521;28;20065;-71
2022/03/23 06:25:11;;;;;;;41.83;25.15;;;7.70;71.30;;;;;;5023701;28;20409;-71
2022/03/23 06:27:38;;;;;;;37.78;23.63;;;7.70;71.50;;;;;;5024179;28;20025;-71
2022/03/23 06:30:06;;;;;;;36.75;21.73;;;7.70;71.50;;;;;;5007696;28;20061;-74
2022/03/23 06:32:33;;;;;;;40.60;23.38;;;7.80;71.30;;;;;;5008563;28;20112;-70
2022/03/23 06:35:01;;;;;;;40.85;24.33;;;7.80;71.30;;;;;;5025276;28;20063;-70
2022/03/23 06:37:27;;;;;;;37.45;23.77;;;7.80;71.70;;;;;;5026228;28;20037;-71
2022/03/23 06:39:53;;;;;;;35.33;22.52;;;7.90;71.40;;;;;;5025921;28;20044;-71
2022/03/23 06:42:19;;;;;;;36.67;22.70;;;7.90;71.30;;;;;;5007975;28;20032;-71
2022/03/23 06:44:46;;;;;;;32.83;22.60;;;8.00;71.20;;;;;;5008222;28;20030;-72
2022/03/23 06:47:12;;;;;;;35.28;22.08;;;8.00;71.10;;;;;;5025414;28;20025;-73
2022/03/23 06:49:38;;;;;;;32.88;22.13;;;8.10;70.80;;;;;;5008156;28;20030;-73
2022/03/23 06:52:04;;;;;;;33.75;21.65;;;8.10;70.50;;;;;;5026025;28;20075;-71
2022/03/23 06:54:30;;;;;;;38.38;22.67;;;8.20;70.30;;;;;;5022716;28;20022;-71
2022/03/23 06:56:56;;;;;;;36.53;21.55;;;8.20;70.00;;;;;;5007908;28;20028;-71
2022/03/23 06:59:22;;;;;;;36.55;22.00;;;8.20;69.70;;;;;;5008901;28;20520;-71
2022/03/23 07:01:51;;;;;;;34.83;21.70;;;8.20;69.40;;;;;;5028059;28;20064;-71
2022/03/23 07:04:16;;;;;;;36.33;23.00;;;8.30;69.30;;;;;;5008650;28;20065;-71
2022/03/23 07:06:42;;;;;;;32.35;21.08;;;8.30;69.10;;;;;;5026463;28;20025;-72
2022/03/23 07:11:53;;;;;;;37.88;22.15;;;8.40;68.50;;;;;;5028130;28;20120;-72
2022/03/23 07:14:19;;;;;;;32.50;21.02;;;8.50;68.20;;;;;;5012210;28;20508;-73
2022/03/23 07:16:45;;;;;;;34.13;21.55;;;8.50;67.90;;;;;;5013926;28;20030;-71
2022/03/23 07:19:13;;;;;;;34.10;20.20;;;8.50;67.50;;;;;;4996614;28;20026;-73
2022/03/23 07:21:39;;;;;;;32.47;20.40;;;8.60;67.30;;;;;;5032671;28;20033;-74
2022/03/23 07:24:05;;;;;;;37.08;22.27;;;8.60;67.00;;;;;;5033195;28;20041;-73
2022/03/23 07:26:31;;;;;;;33.63;20.80;;;8.70;66.70;;;;;;5012839;28;20105;-72
2022/03/23 07:28:57;;;;;;;38.40;21.25;;;8.80;66.40;;;;;;5012539;28;20111;-73
2022/03/23 07:31:23;;;;;;;31.73;20.83;;;8.80;66.20;;;;;;4996739;28;20044;-70
2022/03/23 07:33:50;;;;;;;32.05;19.75;;;8.90;66.40;;;;;;5013162;28;20054;-74
2022/03/23 07:36:16;;;;;;;33.70;21.42;;;9.10;65.70;;;;;;5031075;28;20026;-73
2022/03/23 07:38:42;;;;;;;34.03;21.08;;;9.10;64.80;;;;;;5032367;28;20034;-74
2022/03/23 07:41:07;;;;;;;36.15;21.25;;;9.20;64.50;;;;;;5015704;28;20105;-74
2022/03/23 07:43:34;;;;;;;30.23;20.55;;;9.20;64.00;;;;;;5028417;28;20029;-75
2022/03/23 07:46:00;;;;;;;29.13;19.10;;;9.20;64.00;;;;;;5028406;28;20025;-70
2022/03/23 07:48:30;;;;;;;31.48;19.42;;;9.30;63.80;;;;;;4995658;28;20382;-70
2022/03/23 07:50:56;;;;;;;28.40;19.05;;;9.30;63.20;;;;;;5030317;28;20033;-70
2022/03/23 07:53:22;;;;;;;30.27;19.27;;;9.40;62.40;;;;;;5031337;28;20449;-70
2022/03/23 07:55:47;;;;;;;27.88;18.75;;;9.50;61.80;;;;;;5028884;28;20021;-70
2022/03/23 07:58:14;;;;;;;26.88;17.83;;;9.50;61.70;;;;;;4993555;28;20034;-70
2022/03/23 08:00:41;;;;;;;27.80;17.92;;;9.60;61.30;;;;;;5007430;28;20021;-70
2022/03/23 08:03:08;;;;;;;26.10;17.30;;;9.70;60.10;;;;;;4994377;28;20021;-72
2022/03/23 08:05:33;;;;;;;29.65;16.45;;;9.80;59.50;;;;;;5029411;28;20736;-72
2022/03/23 08:07:59;;;;;;;25.02;16.95;;;9.80;59.40;;;;;;5011673;28;20105;-70
2022/03/23 08:10:26;;;;;;;27.20;17.65;;;9.90;56.20;;;;;;5028301;28;20049;-71
2022/03/23 08:12:53;;;;;;;25.70;16.90;;;10.00;56.20;;;;;;5030029;28;20052;-71
2022/03/23 08:15:19;;;;;;;28.00;17.20;;;10.10;56.30;;;;;;5029123;28;20036;-72
2022/03/23 08:17:44;;;;;;;25.63;17.33;;;10.20;56.00;;;;;;5011508;28;20108;-72
2022/03/23 08:22:59;;;;;;;27.50;17.15;;;10.40;55.40;;;;;;5030074;28;20029;-72
2022/03/23 08:25:26;;;;;;;28.52;16.17;;;10.40;53.90;;;;;;5028564;28;20033;-72
2022/03/23 08:27:54;;;;;;;26.30;16.45;;;10.50;51.50;;;;;;5029380;28;20047;-71
2022/03/23 08:30:21;;;;;;;25.13;15.35;;;10.60;51.40;;;;;;5027775;28;20117;-72
2022/03/23 08:32:47;;;;;;;26.88;18.25;;;10.70;51.80;;;;;;5029451;28;20026;-71
2022/03/23 08:35:13;;;;;;;24.60;16.25;;;10.80;50.60;;;;;;5011785;28;20032;-73
2022/03/23 08:37:39;;;;;;;22.73;16.25;;;10.90;50.50;;;;;;5010023;28;20075;-71
2022/03/23 08:40:06;;;;;;;23.73;15.27;;;11.00;50.80;;;;;;5011621;28;20026;-71
2022/03/23 08:42:33;;;;;;;21.23;14.55;;;11.00;50.60;;;;;;5026530;28;20468;-72
2022/03/23 08:44:58;;;;;;;23.52;14.98;;;11.10;50.00;;;;;;5027802;28;20047;-71
2022/03/23 08:47:24;;;;;;;23.77;14.75;;;11.20;50.00;;;;;;5011603;28;20034;-71
2022/03/23 08:49:50;;;;;;;19.50;14.25;;;11.30;50.20;;;;;;4995799;28;20128;-70
2022/03/23 08:52:16;;;;;;;25.08;15.77;;;11.30;49.70;;;;;;5024888;28;20104;-70
2022/03/23 08:54:42;;;;;;;25.35;17.48;;;11.40;49.70;;;;;;5028797;28;20104;-70
2022/03/23 08:57:08;;;;;;;22.30;15.95;;;11.50;48.40;;;;;;5029106;28;20032;-71
2022/03/23 08:59:34;;;;;;;29.27;15.80;;;11.60;48.50;;;;;;5028622;28;20068;-71
2022/03/23 09:01:59;;;;;;;25.40;15.48;;;11.70;48.00;;;;;;5009477;28;20049;-70
2022/03/23 09:04:25;;;;;;;29.67;16.55;;;11.70;47.50;;;;;;5009164;28;20073;-71
2022/03/23 09:06:52;;;;;;;22.83;15.75;;;11.80;45.30;;;;;;5028718;28;20104;-71
2022/03/23 09:09:20;;;;;;;25.80;16.70;;;11.90;46.10;;;;;;5024633;28;20029;-72
2022/03/23 09:11:46;;;;;;;24.30;15.27;;;12.00;44.60;;;;;;5008090;28;20077;-72
2022/03/23 09:14:12;;;;;;;25.17;16.17;;;12.10;43.20;;;;;;5011059;28;20030;-71
2022/03/23 09:16:39;;;;;;;19.65;13.27;;;12.20;42.40;;;;;;5029063;28;20017;-71
2022/03/23 09:19:05;;;;;;;27.17;15.90;;;12.30;42.70;;;;;;5008172;28;20028;-73
2022/03/23 09:21:33;;;;;;;23.35;15.32;;;12.30;42.60;;;;;;5026560;28;20025;-72
2022/03/23 09:23:59;;;;;;;18.48;14.15;;;12.40;43.10;;;;;;5026731;28;20029;-71
2022/03/23 09:26:26;;;;;;;23.85;15.65;;;12.40;43.20;;;;;;5011477;28;20052;-71
2022/03/23 09:28:56;;;;;;;23.45;14.18;;;12.50;43.10;;;;;;5010686;28;20067;-71
2022/03/23 09:31:22;;;;;;;23.05;14.05;;;12.50;41.70;;;;;;5025490;28;20029;-71
2022/03/23 09:33:48;;;;;;;24.17;15.68;;;12.60;42.40;;;;;;5026953;28;20079;-73
2022/03/23 09:38:59;;;;;;;23.58;15.55;;;12.80;42.70;;;;;;5028557;28;20366;-72
2022/03/23 09:41:25;;;;;;;23.42;16.25;;;12.80;42.90;;;;;;5025536;28;20100;-73
2022/03/23 09:43:52;;;;;;;23.38;16.40;;;12.80;42.70;;;;;;5026582;28;20029;-72
2022/03/23 09:46:18;;;;;;;30.30;17.52;;;13.00;43.20;;;;;;4993803;28;20511;-70
2022/03/23 09:48:44;;;;;;;26.05;16.50;;;13.00;43.60;;;;;;5010977;28;20039;-71
2022/03/23 09:51:11;;;;;;;21.05;15.60;;;13.20;44.50;;;;;;5008589;28;20489;-71
2022/03/23 09:53:38;;;;;;;24.65;17.13;;;13.20;44.00;;;;;;5008988;28;20041;-71
2022/03/23 09:56:04;;;;;;;29.15;18.35;;;13.10;44.10;;;;;;5030040;28;20022;-73
2022/03/23 09:58:29;;;;;;;27.52;18.10;;;13.20;43.60;;;;;;5025804;28;20031;-72
2022/03/23 10:00:56;;;;;;;26.52;17.70;;;13.30;44.30;;;;;;5008951;28;20030;-71
2022/03/23 10:03:41;;;;;;;24.45;16.73;;;13.30;44.10;;;;;;5010222;28;20034;-70
2022/03/23 10:06:44;;;;;;;25.27;17.30;;;13.50;44.10;;;;;;5008477;28;20037;-72
2022/03/23 10:09:25;;;;;;;28.20;18.13;;;13.60;44.50;;;;;;5008863;28;20053;-72
2022/03/23 10:12:30;;;;;;;24.20;17.70;;;13.70;43.50;;;;;;5008112;28;20091;-73
2022/03/23 10:15:17;;;;;;;27.33;18.13;;;13.80;42.60;;;;;;5029595;28;20034;-71
2022/03/23 10:17:55;;;;;;;25.67;17.35;;;13.90;42.80;;;;;;5008375;28;20033;-70
2022/03/23 10:20:20;;;;;;;24.15;16.85;;;14.00;42.30;;;;;;5010855;28;20104;-74
2022/03/23 10:22:48;;;;;;;27.30;17.75;;;14.00;42.60;;;;;;5010011;28;20021;-73
2022/03/23 10:25:14;;;;;;;26.23;17.35;;;14.10;42.70;;;;;;5026189;28;20451;-71
2022/03/23 10:27:43;;;;;;;24.08;17.17;;;14.20;42.80;;;;;;5025573;28;20051;-71
2022/03/23 10:30:09;;;;;;;23.08;16.25;;;14.20;43.00;;;;;;5027404;28;20013;-71
2022/03/23 10:32:37;;;;;;;24.08;15.88;;;14.30;42.50;;;;;;5029782;28;20044;-72
2022/03/23 10:35:09;;;;;;;26.05;16.90;;;14.30;42.70;;;;;;5028331;28;20404;-71
2022/03/23 10:37:35;;;;;;;30.10;18.63;;;14.30;42.90;;;;;;5021939;28;20621;-72
2022/03/23 10:40:10;;;;;;;31.45;18.17;;;14.40;42.60;;;;;;5026097;28;20030;-71
2022/03/23 10:42:38;;;;;;;26.88;19.15;;;14.50;42.50;;;;;;5005062;28;20108;-71
2022/03/23 10:45:12;;;;;;;24.45;17.27;;;14.60;42.40;;;;;;5028051;28;20052;-73
2022/03/23 10:47:40;;;;;;;24.52;15.90;;;14.60;42.40;;;;;;5009130;28;20044;-73
2022/03/23 10:50:14;;;;;;;21.75;15.60;;;14.70;43.10;;;;;;5011402;28;20025;-71
2022/03/23 10:53:00;;;;;;;21.13;16.40;;;14.70;43.60;;;;;;5031050;28;20029;-71
2022/03/23 10:55:34;;;;;;;22.55;16.08;;;14.60;43.00;;;;;;5012360;28;20508;-71
2022/03/23 10:58:00;;;;;;;24.60;16.08;;;14.60;43.20;;;;;;5013298;28;20024;-73
2022/03/23 11:00:39;;;;;;;21.05;14.80;;;14.70;43.80;;;;;;5027579;28;20438;-71
2022/03/23 11:03:08;;;;;;;20.38;14.93;;;14.70;43.50;;;;;;5007382;28;20036;-70
2022/03/23 11:05:42;;;;;;;21.35;15.02;;;14.90;43.60;;;;;;5008035;28;20348;-72
2022/03/23 11:08:21;;;;;;;21.77;14.25;;;15.00;45.00;;;;;;5029654;28;20033;-70
2022/03/23 11:16:31;;;;;;;21.25;14.55;;;16.90;46.30;;;;;;5004924;28;20046;-72
2022/03/23 11:18:57;;;;;;;19.63;14.00;;;19.20;42.20;;;;;;5003631;28;20428;-70
2022/03/23 11:21:24;;;;;;;17.98;12.73;;;21.50;39.30;;;;;;5012138;28;20060;-72
2022/03/23 11:23:50;;;;;;;14.95;12.32;;;23.40;36.40;;;;;;5006248;28;20040;-72
2022/03/23 11:26:16;;;;;;;16.80;12.70;;;25.10;33.90;;;;;;5004894;28;20108;-71
2022/03/23 11:28:46;;;;;;;17.30;12.70;;;26.20;32.20;;;;;;5008989;28;20034;-71
2022/03/23 11:31:15;;;;;;;;;;;27.00;31.30;;;;;;5024597;28;20148;-71
2022/03/23 11:33:45;;;;;;;21.45;15.95;;;27.50;29.10;;;;;;5001994;28;19922;-72
2022/03/23 11:36:12;;;;;;;22.30;16.77;;;27.70;28.10;;;;;;5005799;28;20041;-72
2022/03/23 11:38:39;;;;;;;21.98;15.02;;;27.50;27.40;;;;;;5024455;28;20112;-72
2022/03/23 11:41:09;;;;;;;17.50;14.60;;;27.40;28.50;;;;;;5025444;28;20056;-71
2022/03/23 11:43:36;;;;;;;;;;;27.30;29.20;;;;;;5023215;28;20152;-74
2022/03/23 11:46:04;;;;;;;19.23;15.35;;;27.30;28.50;;;;;;5024495;28;19909;-71
2022/03/23 11:49:05;;;;;;;16.63;13.90;;;27.30;29.10;;;;;;5022411;28;20026;-71
2022/03/23 11:51:59;;;;;;;23.77;15.50;;;27.00;29.40;;;;;;4992731;28;20046;-71
2022/03/23 11:57:48;;;;;;;19.08;14.88;;;25.20;30.00;;;;;;4995257;28;20049;-72
2022/03/23 12:00:21;;;;;;;21.60;16.20;;;24.20;31.30;;;;;;4986381;28;20070;-71
2022/03/23 12:02:46;;;;;;;20.50;15.27;;;23.30;32.50;;;;;;4995325;28;20112;-73
2022/03/23 12:05:24;;;;;;;18.75;14.20;;;22.50;33.60;;;;;;4995622;28;20062;-72
2022/03/23 12:07:51;;;;;;;25.20;15.70;;;21.80;34.80;;;;;;4979655;28;20034;-75
2022/03/23 12:10:27;;;;;;;21.35;14.57;;;21.10;35.80;;;;;;4961097;28;20065;-76
2022/03/23 12:12:53;;;;;;;22.02;13.32;;;20.70;36.70;;;;;;4992931;28;20049;-84
2022/03/23 12:15:26;;;;;;;22.23;13.48;;;20.60;37.60;;;;;;4992553;28;20221;-78
2022/03/23 12:17:57;;;;;;;19.67;13.63;;;20.60;38.20;;;;;;4987220;28;20018;-77
2022/03/23 12:20:41;;;;;;;21.77;14.10;;;20.80;38.10;;;;;;5007920;28;20065;-74
2022/03/23 12:23:28;;;;;;;17.90;12.50;;;21.00;37.60;;;;;;4973995;28;20034;-75
2022/03/23 12:26:01;;;;;;;25.77;15.45;;;21.20;38.20;;;;;;5013563;28;20048;-74
2022/03/23 12:28:40;;;;;;;31.55;18.95;;;21.50;37.60;;;;;;5007194;28;20458;-73
2022/03/23 12:31:14;;;;;;;22.92;13.23;;;21.70;37.40;;;;;;5026973;28;20077;-76
2022/03/23 12:34:06;;;;;;;20.02;13.50;;;21.90;37.00;;;;;;5004618;28;20038;-76
2022/03/23 12:37:18;;;;;;;19.77;12.18;;;22.40;35.60;;;;;;5024913;28;20037;-76
2022/03/23 12:39:51;;;;;;;20.00;13.55;;;22.10;36.20;;;;;;5014854;28;20084;-76
2022/03/23 12:42:34;;;;;;;20.08;12.27;;;21.40;36.70;;;;;;4960229;28;20039;-79
2022/03/23 12:45:04;;;;;;;21.92;13.32;;;20.70;37.50;;;;;;4960590;28;20039;-76
2022/03/23 12:47:33;;;;;;;21.33;11.52;;;20.00;37.80;;;;;;4972908;28;20038;-75
2022/03/23 12:58:48;;;;;;;21.95;14.35;;;18.30;39.90;;;;;;4952848;28;20114;-74
2022/03/23 13:01:29;;;;;;;33.65;17.13;;;18.20;39.90;;;;;;4972540;28;20037;-76
2022/03/23 13:03:55;;;;;;;28.00;17.00;;;18.20;42.80;;;;;;4975698;28;20039;-78
2022/03/23 13:06:32;;;;;;;23.35;14.70;;;18.00;41.20;;;;;;4957728;28;20307;-75
2022/03/23 13:09:00;;;;;;;21.45;13.73;;;17.90;41.10;;;;;;4952332;28;20039;-75
2022/03/23 13:11:29;;;;;;;25.55;15.27;;;17.70;41.20;;;;;;4958821;28;20026;-76